Time;durP1;ratioP1;P1;durP2;ratioP2;P2;SDS_P1;SDS_P2;PMS_P1;PMS_P2;Temp;Humidity;BMP_temperature;BMP_pressure;BME280_temperature;BME280_humidity;BME280_pressure;Samples;Min_cycle;Max_cycle;Signal;HPM_P1;HPM_P2
2023/07/13 00:00:25;;;;;;;6.35;1.60;;;15.40;99.90;;;;;;5152919;27;20037;-45
2023/07/13 00:02:53;;;;;;;3.60;1.27;;;15.40;99.90;;;;;;5152595;27;20543;-51
2023/07/13 00:05:20;;;;;;;5.65;1.30;;;15.40;99.90;;;;;;5152627;27;20023;-44
2023/07/13 00:07:46;;;;;;;5.82;1.80;;;15.40;99.90;;;;;;5152753;27;20022;-46
2023/07/13 00:10:12;;;;;;;7.30;1.75;;;15.50;99.90;;;;;;5151969;27;20391;-46
2023/07/13 00:12:38;;;;;;;3.47;1.27;;;15.50;99.90;;;;;;5151282;27;20095;-47
2023/07/13 00:15:07;;;;;;;2.60;1.23;;;15.50;99.90;;;;;;5152441;27;20542;-50
2023/07/13 00:17:33;;;;;;;2.75;1.13;;;15.50;99.90;;;;;;5152487;27;20475;-43
2023/07/13 00:19:59;;;;;;;5.22;1.70;;;15.40;99.90;;;;;;5152385;27;20023;-50
2023/07/13 00:22:25;;;;;;;6.70;1.45;;;15.50;99.90;;;;;;5152553;27;20027;-45
2023/07/13 00:24:52;;;;;;;6.72;1.65;;;15.50;99.90;;;;;;5152369;27;20014;-54
2023/07/13 00:27:18;;;;;;;4.05;1.58;;;15.50;99.90;;;;;;5152460;27;20386;-46
2023/07/13 00:29:44;;;;;;;7.63;1.67;;;15.50;99.90;;;;;;5152267;27;20021;-46
2023/07/13 00:32:11;;;;;;;3.85;1.23;;;15.50;99.90;;;;;;5152319;27;20107;-48
2023/07/13 00:34:38;;;;;;;5.38;1.33;;;15.40;99.90;;;;;;5152243;27;20136;-45
2023/07/13 00:37:06;;;;;;;2.47;1.27;;;15.40;99.90;;;;;;5152378;27;20030;-48
2023/07/13 00:39:35;;;;;;;5.43;1.25;;;15.30;99.90;;;;;;5152356;27;20035;-53
2023/07/13 00:42:01;;;;;;;3.95;1.27;;;15.30;99.90;;;;;;5152249;27;20054;-51
2023/07/13 00:44:28;;;;;;;4.22;1.30;;;15.30;99.90;;;;;;5145190;27;20034;-56
2023/07/13 00:46:55;;;;;;;4.05;1.40;;;15.30;99.90;;;;;;5144624;27;20566;-49
2023/07/13 00:49:22;;;;;;;3.20;1.38;;;15.30;99.90;;;;;;5151927;27;20029;-42
2023/07/13 00:51:58;;;;;;;6.47;1.70;;;15.40;99.90;;;;;;5150796;27;20023;-43
2023/07/13 00:54:33;;;;;;;5.75;1.85;;;15.40;99.90;;;;;;5150294;27;20042;-44
2023/07/13 00:57:03;;;;;;;3.83;1.42;;;15.40;99.90;;;;;;5152102;27;20462;-48
2023/07/13 00:59:29;;;;;;;5.38;1.67;;;15.40;99.90;;;;;;5150694;27;20011;-52
2023/07/13 01:01:55;;;;;;;3.03;1.40;;;15.30;99.90;;;;;;5152116;27;20019;-42
2023/07/13 01:04:24;;;;;;;4.28;1.50;;;15.30;99.90;;;;;;5151932;27;20034;-48
2023/07/13 01:06:50;;;;;;;4.45;1.30;;;15.20;99.90;;;;;;5151995;27;20478;-47
2023/07/13 01:09:16;;;;;;;4.45;1.35;;;15.10;99.90;;;;;;5151784;27;20114;-45
2023/07/13 01:11:41;;;;;;;4.45;1.50;;;15.10;99.90;;;;;;5151841;27;20072;-43
2023/07/13 01:14:08;;;;;;;4.10;1.67;;;15.10;99.90;;;;;;5151651;27;20031;-51
2023/07/13 01:16:35;;;;;;;6.13;1.63;;;15.00;99.90;;;;;;5140708;27;20019;-43
2023/07/13 01:19:03;;;;;;;4.40;1.20;;;15.00;99.90;;;;;;5130926;27;20399;-47
2023/07/13 01:21:32;;;;;;;1.70;1.08;;;14.90;99.90;;;;;;5137596;27;20026;-45
2023/07/13 01:23:58;;;;;;;4.83;1.70;;;14.90;99.90;;;;;;5137193;27;20072;-45
2023/07/13 01:26:23;;;;;;;7.35;1.50;;;14.80;99.90;;;;;;5139899;27;20732;-43
2023/07/13 01:28:49;;;;;;;4.07;1.25;;;14.80;99.90;;;;;;5155990;27;20083;-49
2023/07/13 01:31:15;;;;;;;5.95;1.85;;;14.80;99.90;;;;;;5155762;27;20057;-45
2023/07/13 01:33:41;;;;;;;5.78;1.60;;;14.70;99.90;;;;;;5150698;27;20023;-45
2023/07/13 01:36:09;;;;;;;7.47;1.60;;;14.70;99.90;;;;;;5146226;27;20049;-49
2023/07/13 01:38:36;;;;;;;3.95;1.30;;;14.70;99.90;;;;;;5155533;27;20023;-46
2023/07/13 01:41:02;;;;;;;5.53;1.65;;;14.70;99.90;;;;;;5155450;27;20076;-42
2023/07/13 01:43:28;;;;;;;4.05;1.50;;;14.60;99.90;;;;;;5155494;27;20095;-44
2023/07/13 01:45:53;;;;;;;4.15;1.80;;;14.60;99.90;;;;;;5155578;27;20316;-45
2023/07/13 01:48:20;;;;;;;2.95;1.17;;;14.60;99.90;;;;;;5155468;27;20030;-47
2023/07/13 01:50:47;;;;;;;6.13;2.25;;;14.60;99.90;;;;;;5150157;27;20047;-57
2023/07/13 01:53:13;;;;;;;3.83;1.67;;;14.50;99.90;;;;;;5146011;27;20034;-42
2023/07/13 01:55:39;;;;;;;6.25;1.83;;;14.50;99.90;;;;;;5154978;27;20045;-45
2023/07/13 01:58:05;;;;;;;3.72;1.33;;;14.50;99.90;;;;;;5155156;27;20026;-50
2023/07/13 02:00:31;;;;;;;4.97;1.45;;;14.50;99.90;;;;;;5155226;27;20027;-49
2023/07/13 02:02:57;;;;;;;4.53;1.55;;;14.40;99.90;;;;;;5154952;27;20067;-50
2023/07/13 02:05:23;;;;;;;3.00;1.13;;;14.40;99.90;;;;;;5154872;27;20023;-49
2023/07/13 02:07:49;;;;;;;2.67;1.20;;;14.40;99.90;;;;;;5154763;27;20026;-44
2023/07/13 02:10:15;;;;;;;3.95;1.40;;;14.40;99.90;;;;;;5155120;27;20026;-42
2023/07/13 02:12:41;;;;;;;4.38;1.48;;;14.30;99.90;;;;;;5152175;27;20023;-44
2023/07/13 02:15:07;;;;;;;2.85;1.40;;;14.30;99.90;;;;;;5133074;27;20555;-41
2023/07/13 02:17:35;;;;;;;7.13;1.60;;;14.30;99.90;;;;;;5154797;27;20493;-46
2023/07/13 02:20:00;;;;;;;4.38;1.80;;;14.30;99.90;;;;;;5154972;27;20022;-43
2023/07/13 02:22:26;;;;;;;5.45;1.45;;;14.30;99.90;;;;;;5154857;27;20026;-46
2023/07/13 02:24:52;;;;;;;3.00;1.05;;;14.30;99.90;;;;;;5149616;27;20035;-50
2023/07/13 02:27:18;;;;;;;7.53;1.40;;;14.20;99.90;;;;;;5145163;27;20367;-42
2023/07/13 02:29:44;;;;;;;2.20;1.15;;;14.20;99.90;;;;;;5154742;27;20023;-45
2023/07/13 02:32:10;;;;;;;3.75;0.90;;;14.20;99.90;;;;;;5154145;27;20386;-44
2023/07/13 02:34:35;;;;;;;1.85;0.90;;;14.10;99.90;;;;;;5154437;27;20034;-43
2023/07/13 02:37:01;;;;;;;3.63;1.20;;;14.10;99.90;;;;;;5154620;27;20015;-44
2023/07/13 02:39:28;;;;;;;2.92;1.17;;;14.00;99.90;;;;;;5153556;27;20031;-42
2023/07/13 02:41:53;;;;;;;3.58;1.30;;;14.00;99.90;;;;;;5134734;27;20046;-48
2023/07/13 02:44:19;;;;;;;3.40;1.48;;;14.00;99.90;;;;;;5133522;27;20023;-51
2023/07/13 02:46:45;;;;;;;2.13;0.90;;;14.00;99.90;;;;;;5133376;27;20044;-47
2023/07/13 02:49:10;;;;;;;4.65;1.10;;;13.90;99.90;;;;;;5133519;27;20094;-47
2023/07/13 02:51:36;;;;;;;2.38;1.05;;;13.80;99.90;;;;;;5133154;27;20015;-49
2023/07/13 02:54:03;;;;;;;7.75;1.40;;;13.80;99.90;;;;;;5133058;27;20201;-43
2023/07/13 02:56:30;;;;;;;2.42;0.85;;;13.80;99.90;;;;;;5133226;27;20019;-43
2023/07/13 02:58:56;;;;;;;2.65;0.75;;;13.80;99.90;;;;;;5133519;27;20194;-57
2023/07/13 03:01:22;;;;;;;2.45;1.40;;;13.70;99.90;;;;;;5133280;27;20024;-52
2023/07/13 03:03:49;;;;;;;3.00;1.65;;;13.80;99.90;;;;;;5133009;27;20023;-56
2023/07/13 03:06:16;;;;;;;3.70;1.10;;;13.70;99.90;;;;;;5132874;27;20471;-47
2023/07/13 03:08:42;;;;;;;2.17;1.13;;;13.80;99.90;;;;;;5132786;27;20420;-54
2023/07/13 03:11:13;;;;;;;3.45;1.30;;;13.70;99.90;;;;;;5133134;27;20544;-59
2023/07/13 03:13:40;;;;;;;3.22;1.10;;;13.80;99.90;;;;;;5132867;27;20038;-59
2023/07/13 03:16:06;;;;;;;4.55;1.15;;;13.70;99.90;;;;;;5133070;27;20593;-54
2023/07/13 03:18:32;;;;;;;2.08;1.25;;;13.70;99.90;;;;;;5132904;27;20027;-45
2023/07/13 03:20:58;;;;;;;1.38;1.00;;;13.70;99.90;;;;;;5132504;27;20766;-49
2023/07/13 03:23:25;;;;;;;3.42;1.20;;;13.70;99.90;;;;;;5132944;27;20059;-54
2023/07/13 03:25:50;;;;;;;5.18;1.20;;;13.70;99.90;;;;;;5132790;27;20019;-51
2023/07/13 03:28:16;;;;;;;2.03;1.10;;;13.70;99.90;;;;;;5151966;27;20045;-48
2023/07/13 03:30:42;;;;;;;5.35;1.42;;;13.70;99.90;;;;;;5153586;27;20030;-55
2023/07/13 03:33:08;;;;;;;2.55;1.33;;;13.70;99.90;;;;;;5151685;27;20442;-54
2023/07/13 03:35:34;;;;;;;3.47;1.20;;;13.70;99.90;;;;;;5153423;27;20034;-50
2023/07/13 03:38:01;;;;;;;4.18;1.52;;;13.70;99.90;;;;;;5153116;27;20019;-46
2023/07/13 03:40:28;;;;;;;3.33;1.30;;;13.70;99.90;;;;;;5153302;27;20521;-46
2023/07/13 03:42:53;;;;;;;1.45;0.80;;;13.70;99.90;;;;;;5153315;27;20027;-51
2023/07/13 03:45:19;;;;;;;2.60;1.00;;;13.80;99.90;;;;;;5152128;27;20034;-49
2023/07/13 03:47:45;;;;;;;5.28;1.20;;;13.70;99.90;;;;;;5153126;27;20392;-47
2023/07/13 03:50:11;;;;;;;3.22;1.10;;;13.70;99.90;;;;;;5152840;27;20144;-43
2023/07/13 03:52:37;;;;;;;2.20;0.93;;;13.70;99.90;;;;;;5153176;27;20114;-45
2023/07/13 03:55:03;;;;;;;3.65;1.20;;;13.70;99.90;;;;;;5152671;27;20125;-52
2023/07/13 03:57:28;;;;;;;5.05;1.25;;;13.70;99.90;;;;;;5152930;27;20026;-57
2023/07/13 03:59:54;;;;;;;3.17;1.20;;;13.70;99.90;;;;;;5152970;27;20026;-50
2023/07/13 04:02:20;;;;;;;2.92;1.00;;;13.70;99.90;;;;;;5152803;27;20046;-49
2023/07/13 04:04:46;;;;;;;2.45;1.20;;;13.80;99.90;;;;;;5152676;27;20018;-50
2023/07/13 04:07:12;;;;;;;2.13;1.00;;;13.80;99.90;;;;;;5152746;27;20384;-52
2023/07/13 04:09:38;;;;;;;2.50;1.15;;;13.80;99.90;;;;;;5152693;27;20026;-51
2023/07/13 04:12:04;;;;;;;2.47;1.08;;;13.80;99.90;;;;;;5152655;27;20034;-56
2023/07/13 04:14:30;;;;;;;2.85;1.30;;;13.80;99.90;;;;;;5152602;27;20038;-51
2023/07/13 04:16:55;;;;;;;3.55;1.60;;;13.80;99.90;;;;;;5138459;27;20015;-57
2023/07/13 04:19:21;;;;;;;2.83;1.05;;;13.80;99.90;;;;;;5145593;27;20079;-46
2023/07/13 04:21:47;;;;;;;3.55;1.20;;;13.90;99.90;;;;;;5134789;27;20079;-47
2023/07/13 04:24:13;;;;;;;1.48;1.02;;;13.90;99.90;;;;;;5131835;27;20042;-44
2023/07/13 04:26:39;;;;;;;3.92;1.48;;;13.90;99.90;;;;;;5139478;27;20028;-46
2023/07/13 04:29:06;;;;;;;3.95;1.20;;;14.00;99.90;;;;;;5141853;27;20054;-51
2023/07/13 04:31:32;;;;;;;3.28;1.38;;;14.00;99.90;;;;;;5137933;27;20051;-46
2023/07/13 04:33:58;;;;;;;2.13;1.20;;;14.10;99.90;;;;;;5141824;27;20495;-49
2023/07/13 04:36:26;;;;;;;3.88;1.40;;;14.10;99.90;;;;;;5144964;27;20117;-43
2023/07/13 04:38:53;;;;;;;2.20;1.13;;;14.10;99.90;;;;;;5133235;27;20023;-51
2023/07/13 04:41:20;;;;;;;3.42;1.20;;;14.20;99.90;;;;;;5133745;27;20319;-50
2023/07/13 04:43:46;;;;;;;2.85;1.63;;;14.30;99.90;;;;;;5131395;27;20030;-45
2023/07/13 04:46:14;;;;;;;2.70;1.10;;;14.30;99.90;;;;;;5131268;27;20027;-48
2023/07/13 04:48:39;;;;;;;4.55;1.50;;;14.30;99.90;;;;;;5131459;27;20103;-49
2023/07/13 04:51:06;;;;;;;3.15;1.40;;;14.30;99.90;;;;;;5140847;27;20102;-44
2023/07/13 04:53:34;;;;;;;3.38;1.48;;;14.30;99.90;;;;;;5137321;27;20053;-43
2023/07/13 04:56:00;;;;;;;4.18;1.30;;;14.40;99.90;;;;;;5138479;27;20011;-51
2023/07/13 04:58:27;;;;;;;2.05;1.50;;;14.40;99.90;;;;;;5136300;27;20038;-48
2023/07/13 05:00:53;;;;;;;4.93;1.35;;;14.40;99.90;;;;;;5131249;27;20023;-51
2023/07/13 05:03:19;;;;;;;4.78;1.63;;;14.50;99.90;;;;;;5136593;27;20023;-50
2023/07/13 05:05:55;;;;;;;3.35;1.48;;;14.50;99.90;;;;;;5141114;27;20026;-51
2023/07/13 05:08:21;;;;;;;2.35;1.40;;;14.60;99.90;;;;;;5131208;27;20107;-43
2023/07/13 05:10:46;;;;;;;3.33;1.40;;;14.60;99.90;;;;;;5132933;27;20015;-50
2023/07/13 05:13:12;;;;;;;2.10;1.30;;;14.70;99.90;;;;;;5137944;27;20027;-46
2023/07/13 05:15:38;;;;;;;2.10;1.10;;;14.80;99.90;;;;;;5131850;27;20062;-47
2023/07/13 05:18:03;;;;;;;3.47;1.55;;;14.80;99.90;;;;;;5129085;27;20046;-43
2023/07/13 05:20:29;;;;;;;5.57;1.63;;;14.90;99.90;;;;;;5129050;27;20023;-50
2023/07/13 05:22:55;;;;;;;3.42;1.15;;;15.10;99.90;;;;;;5129099;27;20015;-43
2023/07/13 05:25:21;;;;;;;4.00;1.45;;;15.20;99.90;;;;;;5129058;27;20101;-47
2023/07/13 05:27:47;;;;;;;5.63;1.27;;;15.30;99.90;;;;;;5142733;27;20483;-44
2023/07/13 05:30:13;;;;;;;2.78;1.17;;;15.40;99.90;;;;;;5150239;27;20023;-48
2023/07/13 05:32:39;;;;;;;2.08;1.10;;;15.50;99.90;;;;;;5151849;27;20025;-45
2023/07/13 05:35:05;;;;;;;3.67;1.40;;;15.50;99.90;;;;;;5151563;27;20119;-43
2023/07/13 05:37:31;;;;;;;3.30;1.35;;;15.60;99.90;;;;;;5151844;27;20069;-50
2023/07/13 05:39:56;;;;;;;2.42;1.10;;;15.70;99.90;;;;;;5151444;27;20058;-45
2023/07/13 05:42:22;;;;;;;5.03;1.70;;;15.90;99.90;;;;;;5151690;27;20109;-50
2023/07/13 05:44:48;;;;;;;1.52;1.00;;;16.00;99.90;;;;;;5151339;27;20023;-45
2023/07/13 05:47:14;;;;;;;2.70;1.02;;;16.10;99.90;;;;;;5151530;27;20447;-47
2023/07/13 05:49:40;;;;;;;2.83;1.13;;;16.30;99.90;;;;;;5151872;27;20114;-54
2023/07/13 05:52:06;;;;;;;4.57;1.38;;;16.50;99.90;;;;;;5151384;27;20042;-43
2023/07/13 05:54:32;;;;;;;2.88;1.55;;;16.70;99.90;;;;;;5151805;27;20089;-45
2023/07/13 05:56:58;;;;;;;2.90;1.30;;;17.00;99.90;;;;;;5151443;27;20026;-50
2023/07/13 05:59:23;;;;;;;3.13;1.35;;;17.30;99.90;;;;;;5151517;27;20035;-52
2023/07/13 06:01:52;;;;;;;2.05;1.10;;;17.70;99.90;;;;;;5151409;27;20011;-50
2023/07/13 06:04:18;;;;;;;1.67;0.80;;;18.20;99.90;;;;;;5151527;27;20163;-50
2023/07/13 06:06:43;;;;;;;3.47;1.20;;;18.80;99.90;;;;;;5151599;27;20015;-50
2023/07/13 06:09:09;;;;;;;2.65;1.20;;;19.40;99.90;;;;;;5155039;27;20364;-46
2023/07/13 06:11:35;;;;;;;2.35;1.25;;;20.00;99.90;;;;;;5155062;27;20042;-51
2023/07/13 06:14:00;;;;;;;2.58;1.20;;;20.60;99.90;;;;;;5154708;27;20031;-43
2023/07/13 06:16:26;;;;;;;4.22;0.90;;;21.10;99.90;;;;;;5154952;27;20038;-47
2023/07/13 06:18:52;;;;;;;4.18;1.02;;;21.50;99.90;;;;;;5154864;27;20038;-49
2023/07/13 06:21:20;;;;;;;3.10;1.10;;;21.90;99.90;;;;;;5154884;27;20019;-51
2023/07/13 06:23:50;;;;;;;1.55;0.80;;;22.30;99.90;;;;;;5154796;27;20026;-43
2023/07/13 06:26:16;;;;;;;2.15;1.10;;;22.70;99.90;;;;;;5132252;27;20065;-44
2023/07/13 06:28:43;;;;;;;2.58;1.00;;;23.10;99.90;;;;;;5154687;27;20522;-43
2023/07/13 06:31:11;;;;;;;2.55;1.02;;;23.30;99.90;;;;;;5154571;27;20474;-53
2023/07/13 06:33:37;;;;;;;5.13;1.45;;;23.50;99.90;;;;;;5154568;27;20027;-43
2023/07/13 06:36:05;;;;;;;1.63;0.80;;;23.90;99.90;;;;;;5154662;27;20061;-42
2023/07/13 06:38:31;;;;;;;2.60;1.00;;;24.00;99.90;;;;;;5145211;27;20102;-43
2023/07/13 06:40:57;;;;;;;2.92;1.67;;;24.30;99.90;;;;;;5153956;27;20027;-43
2023/07/13 06:43:24;;;;;;;2.03;1.10;;;24.30;99.90;;;;;;5136544;27;20019;-46
2023/07/13 06:45:51;;;;;;;1.30;0.93;;;24.40;99.90;;;;;;5140673;27;20029;-43
2023/07/13 06:48:18;;;;;;;3.65;1.10;;;24.60;99.90;;;;;;5138202;27;20372;-45
2023/07/13 06:50:45;;;;;;;1.48;0.88;;;24.70;99.90;;;;;;5139326;27;20031;-44
2023/07/13 06:53:12;;;;;;;1.40;0.63;;;24.90;99.90;;;;;;5153107;27;20022;-43
2023/07/13 06:55:38;;;;;;;3.97;1.10;;;25.20;99.90;;;;;;5147185;27;20491;-46
2023/07/13 06:58:03;;;;;;;2.55;0.75;;;25.40;99.90;;;;;;5146636;27;20078;-50
2023/07/13 07:00:29;;;;;;;1.45;0.70;;;25.70;99.90;;;;;;5144302;27;20475;-44
2023/07/13 07:02:55;;;;;;;1.65;0.50;;;26.00;99.90;;;;;;5133186;27;20063;-47
2023/07/13 07:05:21;;;;;;;2.00;0.80;;;26.20;99.90;;;;;;5132953;27;20023;-51
2023/07/13 07:07:51;;;;;;;1.85;0.70;;;25.50;99.90;;;;;;5135262;27;20567;-46
2023/07/13 07:10:18;;;;;;;0.52;0.50;;;24.80;99.90;;;;;;5138614;27;20038;-43
2023/07/13 07:12:44;;;;;;;2.15;0.80;;;24.30;99.90;;;;;;5133032;27;20502;-43
2023/07/13 07:15:10;;;;;;;2.55;0.80;;;23.70;99.90;;;;;;5132917;27;20035;-43
2023/07/13 07:17:36;;;;;;;1.73;0.60;;;23.40;99.90;;;;;;5132960;27;20487;-46
2023/07/13 07:20:03;;;;;;;0.68;0.50;;;23.20;99.90;;;;;;5132697;27;20021;-43
2023/07/13 07:22:30;;;;;;;3.90;0.77;;;22.70;99.90;;;;;;5137601;27;20054;-44
2023/07/13 07:24:56;;;;;;;2.28;1.23;;;22.40;99.90;;;;;;5132815;27;20378;-45
2023/07/13 07:27:22;;;;;;;1.65;0.70;;;22.30;99.90;;;;;;5144499;27;20124;-43
2023/07/13 07:29:47;;;;;;;1.30;0.70;;;22.30;99.90;;;;;;5153445;27;20443;-43
2023/07/13 07:32:13;;;;;;;1.65;0.80;;;22.60;99.90;;;;;;5153439;27;20022;-46
2023/07/13 07:34:39;;;;;;;2.83;0.80;;;23.30;99.90;;;;;;5153191;27;20035;-45
2023/07/13 07:37:05;;;;;;;1.38;0.55;;;23.70;99.90;;;;;;5153256;27;20050;-43
2023/07/13 07:39:31;;;;;;;0.70;0.50;;;23.30;99.90;;;;;;5152861;27;20046;-45
2023/07/13 07:41:58;;;;;;;2.25;0.75;;;23.00;99.90;;;;;;5146817;27;20023;-45
2023/07/13 07:44:23;;;;;;;1.65;0.77;;;22.60;99.90;;;;;;5133980;27;20114;-46
2023/07/13 07:46:49;;;;;;;3.92;0.82;;;22.20;99.90;;;;;;5132000;27;20415;-48
2023/07/13 07:49:15;;;;;;;2.10;0.60;;;21.90;99.90;;;;;;5140288;27;20072;-45
2023/07/13 07:51:41;;;;;;;5.22;0.70;;;21.60;99.90;;;;;;5132180;27;20058;-50
2023/07/13 07:54:06;;;;;;;2.03;0.70;;;21.10;99.90;;;;;;5119193;27;20132;-45
2023/07/13 07:56:33;;;;;;;3.05;1.05;;;20.90;99.90;;;;;;5124050;27;20038;-44
2023/07/13 07:58:58;;;;;;;1.70;0.85;;;20.70;99.90;;;;;;5125796;27;20034;-41
2023/07/13 08:01:24;;;;;;;3.30;0.90;;;20.60;99.90;;;;;;5130865;27;20035;-47
2023/07/13 08:03:50;;;;;;;4.20;1.10;;;20.40;99.90;;;;;;5132025;27;20038;-42
2023/07/13 08:06:16;;;;;;;3.15;0.82;;;20.20;99.90;;;;;;5131761;27;20109;-43
2023/07/13 08:08:42;;;;;;;1.45;0.70;;;20.10;99.90;;;;;;5132320;27;20027;-50
2023/07/13 08:11:09;;;;;;;4.47;1.08;;;20.00;99.90;;;;;;5131670;27;20118;-48
2023/07/13 08:13:35;;;;;;;2.08;0.80;;;19.90;99.90;;;;;;5131930;27;20023;-47
2023/07/13 08:16:01;;;;;;;1.58;0.90;;;19.90;99.90;;;;;;5131704;27;20038;-49
2023/07/13 08:18:30;;;;;;;3.28;1.48;;;19.80;99.90;;;;;;5131867;27;20019;-47
2023/07/13 08:20:58;;;;;;;2.60;1.30;;;19.80;99.90;;;;;;5131670;27;20058;-46
2023/07/13 08:23:25;;;;;;;2.30;1.10;;;19.80;99.90;;;;;;5131714;27;20111;-49
2023/07/13 08:25:54;;;;;;;4.50;1.60;;;19.80;99.90;;;;;;5131645;27;20486;-42
2023/07/13 08:28:21;;;;;;;3.50;1.98;;;19.90;99.90;;;;;;5151569;27;20041;-49
2023/07/13 08:30:48;;;;;;;6.10;1.50;;;20.00;99.90;;;;;;5152033;27;20029;-43
2023/07/13 08:33:15;;;;;;;2.60;1.63;;;20.10;99.90;;;;;;5152221;27;20044;-45
2023/07/13 08:35:41;;;;;;;4.70;1.38;;;20.10;99.90;;;;;;5152344;27;20534;-53
2023/07/13 08:38:06;;;;;;;3.35;1.00;;;20.30;99.90;;;;;;5152235;27;20018;-45
2023/07/13 08:40:34;;;;;;;0.98;0.77;;;20.30;99.90;;;;;;5152268;27;20037;-47
2023/07/13 08:43:00;;;;;;;2.95;1.40;;;20.20;99.90;;;;;;5152335;27;20593;-47
2023/07/13 08:45:28;;;;;;;2.22;1.25;;;20.20;99.90;;;;;;5152162;27;20052;-53
2023/07/13 08:48:01;;;;;;;2.80;1.10;;;20.20;99.90;;;;;;5152144;27;20332;-53
2023/07/13 08:50:35;;;;;;;2.60;1.08;;;20.20;99.90;;;;;;5152139;27;20026;-46
2023/07/13 08:53:02;;;;;;;1.85;0.90;;;20.10;99.90;;;;;;5151954;27;20149;-47
2023/07/13 08:55:33;;;;;;;3.17;1.10;;;20.10;99.90;;;;;;5151983;27;20030;-46
2023/07/13 08:58:17;;;;;;;2.08;0.90;;;20.20;99.90;;;;;;5152115;27;20046;-44
2023/07/13 09:00:59;;;;;;;5.05;0.82;;;20.20;99.90;;;;;;5151941;27;20037;-45
2023/07/13 09:03:31;;;;;;;5.18;0.88;;;20.10;99.90;;;;;;5152058;27;20060;-52
2023/07/13 09:06:02;;;;;;;2.83;0.80;;;20.20;99.90;;;;;;5151800;27;20485;-47
2023/07/13 09:08:39;;;;;;;3.38;1.13;;;20.10;99.90;;;;;;5152155;27;20018;-47
2023/07/13 09:11:36;;;;;;;3.58;1.02;;;20.10;99.90;;;;;;5125302;27;20050;-43
2023/07/13 09:14:20;;;;;;;3.75;1.00;;;20.20;99.90;;;;;;5142864;27;20071;-42
2023/07/13 09:16:48;;;;;;;3.40;0.93;;;20.40;99.90;;;;;;5130989;27;20479;-46
2023/07/13 09:19:24;;;;;;;4.80;0.93;;;20.60;99.90;;;;;;5129836;27;20031;-48
2023/07/13 09:21:52;;;;;;;2.50;1.13;;;20.70;99.90;;;;;;5138092;27;20049;-41
2023/07/13 09:24:45;;;;;;;1.55;0.88;;;21.40;99.90;;;;;;5137300;27;20498;-46
2023/07/13 09:27:22;;;;;;;1.90;1.08;;;21.60;99.90;;;;;;5139419;27;20031;-48
2023/07/13 09:30:00;;;;;;;3.75;1.02;;;22.40;99.90;;;;;;5130699;27;20046;-42
2023/07/13 09:32:27;;;;;;;2.53;1.17;;;23.10;99.90;;;;;;5131046;27;20096;-52
2023/07/13 09:34:54;;;;;;;1.27;0.60;;;24.10;99.90;;;;;;5130982;27;20081;-50
2023/07/13 09:37:30;;;;;;;4.43;1.55;;;24.40;99.90;;;;;;5131115;27;20023;-46
2023/07/13 09:39:58;;;;;;;2.42;0.90;;;24.30;99.90;;;;;;5131011;27;20047;-50
2023/07/13 09:42:26;;;;;;;2.33;0.88;;;24.10;99.90;;;;;;5132138;27;20034;-55
2023/07/13 09:44:53;;;;;;;3.72;0.77;;;23.40;99.90;;;;;;5134829;27;20025;-51
2023/07/13 09:47:26;;;;;;;2.78;0.88;;;23.00;99.90;;;;;;5135031;27;20015;-51
2023/07/13 09:50:02;;;;;;;1.58;0.80;;;22.40;99.90;;;;;;5134638;27;20038;-47
2023/07/13 09:52:44;;;;;;;1.45;0.90;;;22.20;99.90;;;;;;5134857;27;20471;-47
2023/07/13 09:55:34;;;;;;;2.75;0.70;;;21.80;99.90;;;;;;5134369;27;20046;-40
2023/07/13 09:58:10;;;;;;;2.70;0.63;;;21.60;99.90;;;;;;5134846;27;20062;-51
2023/07/13 10:00:36;;;;;;;2.92;0.73;;;21.40;99.90;;;;;;5134610;27;20023;-47
2023/07/13 10:03:06;;;;;;;2.28;0.90;;;21.30;99.90;;;;;;5134527;27;20383;-46
2023/07/13 10:05:39;;;;;;;2.85;0.88;;;21.30;99.90;;;;;;5134466;27;20100;-49
2023/07/13 10:08:07;;;;;;;1.52;0.60;;;21.40;99.90;;;;;;5134674;27;20027;-44
2023/07/13 10:10:33;;;;;;;1.25;0.63;;;21.40;99.90;;;;;;5134353;27;20023;-44
2023/07/13 10:12:58;;;;;;;2.60;0.90;;;21.60;99.90;;;;;;5134482;27;20035;-51
2023/07/13 10:15:25;;;;;;;1.15;0.77;;;21.90;99.90;;;;;;5134060;27;20038;-51
2023/07/13 10:17:52;;;;;;;2.60;0.90;;;22.30;99.90;;;;;;5134368;27;20064;-50
2023/07/13 10:20:20;;;;;;;1.80;0.80;;;22.80;99.90;;;;;;5134203;27;20034;-43
2023/07/13 10:23:01;;;;;;;4.63;0.85;;;22.80;99.90;;;;;;5134094;27;20015;-50
2023/07/13 10:25:32;;;;;;;0.85;0.60;;;22.90;99.90;;;;;;5134096;27;20125;-44
2023/07/13 10:28:10;;;;;;;2.80;0.95;;;23.00;99.90;;;;;;5150631;27;20027;-50
2023/07/13 10:30:40;;;;;;;1.30;0.65;;;23.20;99.90;;;;;;5154687;27;20011;-52
2023/07/13 10:33:11;;;;;;;2.33;0.68;;;23.20;99.90;;;;;;5154709;27;20029;-45
2023/07/13 10:35:39;;;;;;;3.85;0.90;;;23.20;99.90;;;;;;5154709;27;20053;-40
2023/07/13 10:38:10;;;;;;;1.10;0.65;;;23.20;99.90;;;;;;5154553;27;20019;-50
2023/07/13 10:40:41;;;;;;;3.30;0.68;;;23.30;99.90;;;;;;5154420;27;20458;-47
2023/07/13 10:43:33;;;;;;;3.55;0.70;;;23.20;99.90;;;;;;5154734;27;20031;-53
2023/07/13 10:46:01;;;;;;;0.75;0.63;;;23.10;99.90;;;;;;5153744;27;20054;-43
2023/07/13 10:48:29;;;;;;;3.40;0.70;;;23.10;99.90;;;;;;5136156;27;20117;-44
2023/07/13 10:50:55;;;;;;;1.52;0.77;;;22.90;99.90;;;;;;5131885;27;20027;-46
2023/07/13 10:53:30;;;;;;;1.60;0.80;;;22.70;99.90;;;;;;5131105;27;20528;-45
2023/07/13 10:56:11;;;;;;;5.50;0.63;;;22.60;99.90;;;;;;5131873;27;20030;-50
2023/07/13 10:58:41;;;;;;;2.70;0.88;;;22.70;99.90;;;;;;5131742;27;20031;-53
2023/07/13 11:01:09;;;;;;;4.43;0.70;;;22.60;99.90;;;;;;5132001;27;20083;-51
2023/07/13 11:03:50;;;;;;;1.30;0.50;;;22.60;99.90;;;;;;5132471;27;20035;-46
2023/07/13 11:06:24;;;;;;;1.02;0.63;;;22.80;99.90;;;;;;5133298;27;20019;-54
2023/07/13 11:08:55;;;;;;;5.63;0.93;;;23.60;99.90;;;;;;5132130;27;20042;-53
2023/07/13 11:11:24;;;;;;;1.90;0.60;;;24.10;99.90;;;;;;5133498;27;20020;-50
2023/07/13 11:13:50;;;;;;;2.65;0.63;;;23.90;99.90;;;;;;5132976;27;20083;-50
2023/07/13 11:16:18;;;;;;;0.93;0.50;;;24.20;99.90;;;;;;5133191;27;20118;-54
2023/07/13 11:19:15;;;;;;;2.10;0.55;;;24.70;99.90;;;;;;5133098;27;20026;-48
2023/07/13 11:22:21;;;;;;;2.65;0.90;;;25.50;99.90;;;;;;5133171;27;20034;-52
2023/07/13 11:24:50;;;;;;;1.45;0.70;;;25.90;99.90;;;;;;5132908;27;20395;-50
2023/07/13 11:27:22;;;;;;;3.25;0.77;;;26.00;99.90;;;;;;5143643;27;20427;-52
2023/07/13 11:29:49;;;;;;;1.50;0.47;;;25.90;99.90;;;;;;5153515;27;20075;-53
2023/07/13 11:32:30;;;;;;;1.70;0.70;;;25.50;99.90;;;;;;5153626;27;20019;-51
2023/07/13 11:34:57;;;;;;;1.83;0.65;;;25.60;99.90;;;;;;5153266;27;20026;-52
2023/07/13 11:37:23;;;;;;;1.33;0.60;;;25.50;99.90;;;;;;5153616;27;20050;-49
2023/07/13 11:39:52;;;;;;;0.90;0.40;;;25.60;99.90;;;;;;5153462;27;20395;-51
2023/07/13 11:42:18;;;;;;;1.35;0.50;;;25.40;99.90;;;;;;5153544;27;20038;-47
2023/07/13 11:44:48;;;;;;;1.63;0.77;;;25.30;99.90;;;;;;5153307;27;20034;-51
2023/07/13 11:47:21;;;;;;;1.33;0.50;;;25.00;99.90;;;;;;5153277;27;20053;-55
2023/07/13 11:49:52;;;;;;;2.40;0.60;;;25.20;99.90;;;;;;5153236;27;20030;-48
2023/07/13 11:52:22;;;;;;;0.60;0.50;;;25.50;99.90;;;;;;5125172;27;20026;-50
2023/07/13 11:54:55;;;;;;;1.73;0.63;;;25.10;99.90;;;;;;5152953;27;20051;-52
2023/07/13 11:57:33;;;;;;;2.15;0.70;;;24.50;99.90;;;;;;5153030;27;20114;-52
2023/07/13 12:00:01;;;;;;;1.35;0.60;;;23.90;99.90;;;;;;5153246;27;20470;-51
2023/07/13 12:02:33;;;;;;;3.13;0.77;;;23.60;99.90;;;;;;5153042;27;20019;-44
2023/07/13 12:05:02;;;;;;;1.40;0.57;;;23.40;99.90;;;;;;5152175;27;20033;-52
2023/07/13 12:07:30;;;;;;;2.67;0.73;;;23.20;99.90;;;;;;5152801;27;20011;-47
2023/07/13 12:10:22;;;;;;;2.55;0.80;;;23.00;99.90;;;;;;5152833;27;20475;-48
2023/07/13 12:12:56;;;;;;;1.92;0.80;;;23.00;99.90;;;;;;5149806;27;20035;-52
2023/07/13 12:15:23;;;;;;;2.30;0.90;;;23.00;99.90;;;;;;5152694;27;20026;-48
2023/07/13 12:17:50;;;;;;;1.63;0.82;;;22.90;99.90;;;;;;5152780;27;20107;-52
2023/07/13 12:20:25;;;;;;;3.55;1.02;;;23.00;99.90;;;;;;5152691;27;20505;-48
2023/07/13 12:22:52;;;;;;;4.15;0.82;;;23.20;99.90;;;;;;5152647;27;20030;-50
2023/07/13 12:25:18;;;;;;;2.55;0.77;;;23.30;99.90;;;;;;5144277;27;20126;-55
2023/07/13 12:27:49;;;;;;;1.63;0.80;;;23.40;99.90;;;;;;5146829;27;20106;-53
2023/07/13 12:30:33;;;;;;;1.40;0.77;;;23.60;99.90;;;;;;5152545;27;20475;-51
2023/07/13 12:33:02;;;;;;;7.45;1.10;;;23.70;99.90;;;;;;5152259;27;20110;-47
2023/07/13 12:35:32;;;;;;;5.57;1.17;;;23.70;99.90;;;;;;5152368;27;20041;-52
2023/07/13 12:38:00;;;;;;;3.42;1.05;;;23.70;99.90;;;;;;5152340;27;20018;-54
2023/07/13 12:40:34;;;;;;;2.28;0.80;;;23.90;99.90;;;;;;5152454;27;20494;-50
2023/07/13 12:43:04;;;;;;;2.28;0.90;;;24.10;99.90;;;;;;5152376;27;20018;-54
2023/07/13 12:45:30;;;;;;;1.45;0.60;;;24.60;99.90;;;;;;5124225;27;20048;-50
2023/07/13 12:47:59;;;;;;;3.25;0.82;;;24.70;99.90;;;;;;5152198;27;20474;-56
2023/07/13 12:50:30;;;;;;;2.05;0.95;;;24.60;99.90;;;;;;5152326;27;20099;-52
2023/07/13 12:53:03;;;;;;;2.03;0.80;;;24.70;99.90;;;;;;5152146;27;20489;-45